Ilulissat

KL  EN  DA
ASIAQ
Weather Now GREENLAND SURVEY
Updated [WGT/WGST] Temperature [°C] Wind [m/s] Air pressure [hPa] Relative humidity [%] Precipitation [mm]
Present Wind chill Speed Max
25.02 07:00n/an/a5,4 ⇐7,01013n/an/a
25.02 06:00-15,7-25,86,5 ⇐8,11013410,2
25.02 05:00-15,1-22,53,7 ⇐6,31013440,0
25.02 04:00-15,7-25,25,8 ⇐7,41012570,0
25.02 03:00-15,6-24,44,9 ⇐7,21012570,0
25.02 02:00-15,8-25,35,7 ⇐6,91012600,0
25.02 01:00-16,4-25,95,5 ⇖6,71012640,0
25.02 00:00-16,0-24,04,1 ⇖5,31011650,0
24.02 23:00-15,6-24,24,8 ⇑6,31011690,0
24.02 22:00-15,2-24,65,8 ⇑7,61010680,0
24.02 21:00-15,0-24,15,6 ⇖6,51010720,0
24.02 20:00-15,0-24,25,6 ⇖7,31009670,1
24.02 19:00-14,6-23,25,1 ⇖6,81008660,1
24.02 18:00-14,6-23,96,0 ⇖8,41007670,0
24.02 17:00-14,8-23,95,7 ⇖8,01006660,0
24.02 16:00-14,6-23,45,2 ⇖6,81005640,0
24.02 15:00-14,7-23,35,0 ⇖6,61004590,0
24.02 14:00-14,4-22,74,8 ⇐6,71003590,0
24.02 13:00-14,6-23,04,8 ⇐5,81002570,0
24.02 12:00-14,3-21,23,4 ⇐5,01002550,0
24.02 11:00-14,5-20,82,9 ⇖4,21001540,0
24.02 10:00-15,4-23,74,5 ⇑6,11000560,0
24.02 09:00-14,3-18,11,5 ⇖2,61000580,0
24.02 08:00-15,30,00,8 ⇑1,4999590,0
24.02 07:00-15,4-20,42,0 ⇖3,1998600,0
Position: (69.2402777777,-51.06611111)

[Back]